sensor_id;sensor_type;location;lat;lon;timestamp;P1;durP1;ratioP1;P2;durP2;ratioP2
59970;SDS011;45825;45.434;9.116;2024-01-07T00:00:37;19.80;;;17.48;;
59970;SDS011;45825;45.434;9.116;2024-01-07T00:03:03;20.13;;;17.65;;
59970;SDS011;45825;45.434;9.116;2024-01-07T00:05:29;20.40;;;16.90;;
59970;SDS011;45825;45.434;9.116;2024-01-07T00:07:54;19.63;;;17.42;;
59970;SDS011;45825;45.434;9.116;2024-01-07T00:10:19;20.20;;;17.80;;
59970;SDS011;45825;45.434;9.116;2024-01-07T00:12:45;20.67;;;17.25;;
59970;SDS011;45825;45.434;9.116;2024-01-07T00:15:10;19.83;;;17.70;;
59970;SDS011;45825;45.434;9.116;2024-01-07T00:17:35;20.25;;;17.30;;
59970;SDS011;45825;45.434;9.116;2024-01-07T00:20:01;21.20;;;17.52;;
59970;SDS011;45825;45.434;9.116;2024-01-07T00:22:26;22.13;;;17.70;;
59970;SDS011;45825;45.434;9.116;2024-01-07T00:24:51;21.17;;;17.08;;
59970;SDS011;45825;45.434;9.116;2024-01-07T00:27:16;19.20;;;16.70;;
59970;SDS011;45825;45.434;9.116;2024-01-07T00:29:42;19.75;;;16.42;;
59970;SDS011;45825;45.434;9.116;2024-01-07T00:32:07;21.50;;;16.60;;
59970;SDS011;45825;45.434;9.116;2024-01-07T00:34:32;21.75;;;17.35;;
59970;SDS011;45825;45.434;9.116;2024-01-07T00:36:58;21.30;;;17.80;;
59970;SDS011;45825;45.434;9.116;2024-01-07T00:39:23;21.02;;;16.75;;
59970;SDS011;45825;45.434;9.116;2024-01-07T00:41:48;21.17;;;17.17;;
59970;SDS011;45825;45.434;9.116;2024-01-07T00:44:13;20.60;;;17.13;;
59970;SDS011;45825;45.434;9.116;2024-01-07T00:46:39;20.15;;;17.35;;
59970;SDS011;45825;45.434;9.116;2024-01-07T00:49:04;23.60;;;17.63;;
59970;SDS011;45825;45.434;9.116;2024-01-07T00:51:29;20.75;;;17.27;;
59970;SDS011;45825;45.434;9.116;2024-01-07T00:53:55;19.88;;;16.88;;
59970;SDS011;45825;45.434;9.116;2024-01-07T00:56:20;21.77;;;17.35;;
59970;SDS011;45825;45.434;9.116;2024-01-07T00:58:45;20.02;;;17.08;;
59970;SDS011;45825;45.434;9.116;2024-01-07T01:01:10;20.00;;;17.38;;
59970;SDS011;45825;45.434;9.116;2024-01-07T01:03:36;20.77;;;18.27;;
59970;SDS011;45825;45.434;9.116;2024-01-07T01:06:01;19.73;;;17.15;;
59970;SDS011;45825;45.434;9.116;2024-01-07T01:08:27;19.90;;;17.40;;
59970;SDS011;45825;45.434;9.116;2024-01-07T01:10:53;19.42;;;16.92;;
59970;SDS011;45825;45.434;9.116;2024-01-07T01:13:18;21.17;;;17.33;;
59970;SDS011;45825;45.434;9.116;2024-01-07T01:15:43;19.67;;;17.35;;
59970;SDS011;45825;45.434;9.116;2024-01-07T01:18:09;21.15;;;17.67;;
59970;SDS011;45825;45.434;9.116;2024-01-07T01:20:34;21.00;;;17.75;;
59970;SDS011;45825;45.434;9.116;2024-01-07T01:22:59;19.52;;;16.83;;
59970;SDS011;45825;45.434;9.116;2024-01-07T01:25:25;22.25;;;17.92;;
59970;SDS011;45825;45.434;9.116;2024-01-07T01:27:51;21.02;;;17.90;;
59970;SDS011;45825;45.434;9.116;2024-01-07T01:30:16;21.33;;;18.00;;
59970;SDS011;45825;45.434;9.116;2024-01-07T01:32:41;20.13;;;17.92;;
59970;SDS011;45825;45.434;9.116;2024-01-07T01:35:07;20.85;;;18.30;;
59970;SDS011;45825;45.434;9.116;2024-01-07T01:37:33;21.10;;;17.92;;
59970;SDS011;45825;45.434;9.116;2024-01-07T01:39:58;21.45;;;17.58;;
59970;SDS011;45825;45.434;9.116;2024-01-07T01:42:24;23.42;;;18.58;;
59970;SDS011;45825;45.434;9.116;2024-01-07T01:44:50;20.85;;;16.90;;
59970;SDS011;45825;45.434;9.116;2024-01-07T01:47:15;21.92;;;18.75;;
59970;SDS011;45825;45.434;9.116;2024-01-07T01:49:41;21.85;;;17.60;;
59970;SDS011;45825;45.434;9.116;2024-01-07T01:52:07;20.33;;;17.80;;
59970;SDS011;45825;45.434;9.116;2024-01-07T01:54:34;21.25;;;18.42;;
59970;SDS011;45825;45.434;9.116;2024-01-07T01:56:59;23.20;;;18.73;;
59970;SDS011;45825;45.434;9.116;2024-01-07T01:59:24;20.08;;;17.35;;
59970;SDS011;45825;45.434;9.116;2024-01-07T02:01:50;20.17;;;17.63;;
59970;SDS011;45825;45.434;9.116;2024-01-07T02:04:16;21.50;;;18.65;;
59970;SDS011;45825;45.434;9.116;2024-01-07T02:06:41;22.27;;;17.70;;
59970;SDS011;45825;45.434;9.116;2024-01-07T02:09:07;20.15;;;17.13;;
59970;SDS011;45825;45.434;9.116;2024-01-07T02:11:33;21.13;;;17.75;;
59970;SDS011;45825;45.434;9.116;2024-01-07T02:13:58;23.30;;;18.95;;
59970;SDS011;45825;45.434;9.116;2024-01-07T02:16:23;21.73;;;18.77;;
59970;SDS011;45825;45.434;9.116;2024-01-07T02:18:49;23.77;;;17.67;;
59970;SDS011;45825;45.434;9.116;2024-01-07T02:21:14;21.08;;;18.15;;
59970;SDS011;45825;45.434;9.116;2024-01-07T02:23:40;22.23;;;18.80;;
59970;SDS011;45825;45.434;9.116;2024-01-07T02:26:05;21.85;;;19.05;;
59970;SDS011;45825;45.434;9.116;2024-01-07T02:28:31;21.05;;;18.58;;
59970;SDS011;45825;45.434;9.116;2024-01-07T02:30:58;22.92;;;19.05;;
59970;SDS011;45825;45.434;9.116;2024-01-07T02:33:23;22.42;;;18.38;;
59970;SDS011;45825;45.434;9.116;2024-01-07T02:35:48;22.00;;;19.05;;
59970;SDS011;45825;45.434;9.116;2024-01-07T02:38:13;22.58;;;18.65;;
59970;SDS011;45825;45.434;9.116;2024-01-07T02:40:39;22.55;;;19.33;;
59970;SDS011;45825;45.434;9.116;2024-01-07T02:43:04;22.13;;;19.20;;
59970;SDS011;45825;45.434;9.116;2024-01-07T02:45:29;22.25;;;18.98;;
59970;SDS011;45825;45.434;9.116;2024-01-07T02:47:55;20.15;;;17.58;;
59970;SDS011;45825;45.434;9.116;2024-01-07T02:50:20;20.08;;;17.38;;
59970;SDS011;45825;45.434;9.116;2024-01-07T02:52:45;20.55;;;18.20;;
59970;SDS011;45825;45.434;9.116;2024-01-07T02:55:11;21.08;;;18.55;;
59970;SDS011;45825;45.434;9.116;2024-01-07T02:57:36;21.17;;;18.33;;
59970;SDS011;45825;45.434;9.116;2024-01-07T03:00:01;20.83;;;18.63;;
59970;SDS011;45825;45.434;9.116;2024-01-07T03:02:29;20.60;;;18.33;;
59970;SDS011;45825;45.434;9.116;2024-01-07T03:04:55;21.33;;;18.75;;
59970;SDS011;45825;45.434;9.116;2024-01-07T03:07:20;20.52;;;18.33;;
59970;SDS011;45825;45.434;9.116;2024-01-07T03:09:45;20.13;;;17.98;;
59970;SDS011;45825;45.434;9.116;2024-01-07T03:12:10;19.92;;;16.98;;
59970;SDS011;45825;45.434;9.116;2024-01-07T03:14:36;21.83;;;18.33;;
59970;SDS011;45825;45.434;9.116;2024-01-07T03:17:01;21.30;;;18.15;;
59970;SDS011;45825;45.434;9.116;2024-01-07T03:19:26;20.73;;;18.30;;
59970;SDS011;45825;45.434;9.116;2024-01-07T03:21:52;21.35;;;18.13;;
59970;SDS011;45825;45.434;9.116;2024-01-07T03:24:17;20.73;;;18.20;;
59970;SDS011;45825;45.434;9.116;2024-01-07T03:26:42;21.13;;;18.83;;
59970;SDS011;45825;45.434;9.116;2024-01-07T03:29:08;22.48;;;19.15;;
59970;SDS011;45825;45.434;9.116;2024-01-07T03:31:33;20.90;;;17.98;;
59970;SDS011;45825;45.434;9.116;2024-01-07T03:33:58;24.40;;;19.63;;
59970;SDS011;45825;45.434;9.116;2024-01-07T03:36:24;23.85;;;19.77;;
59970;SDS011;45825;45.434;9.116;2024-01-07T03:38:49;21.40;;;18.88;;
59970;SDS011;45825;45.434;9.116;2024-01-07T03:41:18;22.30;;;18.40;;
59970;SDS011;45825;45.434;9.116;2024-01-07T03:43:44;21.48;;;19.02;;
59970;SDS011;45825;45.434;9.116;2024-01-07T03:46:10;22.27;;;18.50;;
59970;SDS011;45825;45.434;9.116;2024-01-07T03:48:36;20.75;;;18.10;;
59970;SDS011;45825;45.434;9.116;2024-01-07T03:51:01;22.88;;;19.27;;
59970;SDS011;45825;45.434;9.116;2024-01-07T03:53:26;23.85;;;19.92;;
59970;SDS011;45825;45.434;9.116;2024-01-07T03:55:52;20.48;;;18.27;;
59970;SDS011;45825;45.434;9.116;2024-01-07T03:58:17;21.55;;;18.20;;
59970;SDS011;45825;45.434;9.116;2024-01-07T04:00:42;21.15;;;18.88;;
59970;SDS011;45825;45.434;9.116;2024-01-07T04:03:07;22.77;;;19.15;;
59970;SDS011;45825;45.434;9.116;2024-01-07T04:05:33;23.23;;;19.05;;
59970;SDS011;45825;45.434;9.116;2024-01-07T04:08:00;21.30;;;18.75;;
59970;SDS011;45825;45.434;9.116;2024-01-07T04:10:26;21.65;;;18.83;;
59970;SDS011;45825;45.434;9.116;2024-01-07T04:12:51;22.45;;;18.83;;
59970;SDS011;45825;45.434;9.116;2024-01-07T04:15:16;22.45;;;19.10;;
59970;SDS011;45825;45.434;9.116;2024-01-07T04:17:42;22.50;;;19.20;;
59970;SDS011;45825;45.434;9.116;2024-01-07T04:20:07;22.77;;;19.73;;
59970;SDS011;45825;45.434;9.116;2024-01-07T04:22:33;23.60;;;18.48;;
59970;SDS011;45825;45.434;9.116;2024-01-07T04:25:00;23.38;;;19.23;;
59970;SDS011;45825;45.434;9.116;2024-01-07T04:27:25;23.13;;;19.33;;
59970;SDS011;45825;45.434;9.116;2024-01-07T04:29:50;21.15;;;18.73;;
59970;SDS011;45825;45.434;9.116;2024-01-07T04:32:16;21.23;;;18.83;;
59970;SDS011;45825;45.434;9.116;2024-01-07T04:34:41;24.05;;;19.35;;
59970;SDS011;45825;45.434;9.116;2024-01-07T04:37:06;21.23;;;18.65;;
59970;SDS011;45825;45.434;9.116;2024-01-07T04:39:32;22.25;;;19.35;;
59970;SDS011;45825;45.434;9.116;2024-01-07T04:41:57;22.90;;;19.38;;
59970;SDS011;45825;45.434;9.116;2024-01-07T04:44:23;22.85;;;19.38;;
59970;SDS011;45825;45.434;9.116;2024-01-07T04:46:48;24.60;;;19.42;;
59970;SDS011;45825;45.434;9.116;2024-01-07T04:49:16;21.27;;;19.00;;
59970;SDS011;45825;45.434;9.116;2024-01-07T04:51:41;21.85;;;19.00;;
59970;SDS011;45825;45.434;9.116;2024-01-07T04:54:07;22.15;;;18.42;;
59970;SDS011;45825;45.434;9.116;2024-01-07T04:56:32;23.02;;;19.95;;
59970;SDS011;45825;45.434;9.116;2024-01-07T04:58:57;21.55;;;18.38;;
59970;SDS011;45825;45.434;9.116;2024-01-07T05:01:23;23.13;;;19.02;;
59970;SDS011;45825;45.434;9.116;2024-01-07T05:03:48;22.63;;;19.30;;
59970;SDS011;45825;45.434;9.116;2024-01-07T05:06:14;22.55;;;19.42;;
59970;SDS011;45825;45.434;9.116;2024-01-07T05:08:40;25.13;;;19.08;;
59970;SDS011;45825;45.434;9.116;2024-01-07T05:11:06;23.30;;;19.02;;
59970;SDS011;45825;45.434;9.116;2024-01-07T05:13:31;23.45;;;19.83;;
59970;SDS011;45825;45.434;9.116;2024-01-07T05:15:57;22.02;;;19.00;;
59970;SDS011;45825;45.434;9.116;2024-01-07T05:18:22;21.70;;;18.50;;
59970;SDS011;45825;45.434;9.116;2024-01-07T05:20:48;21.17;;;18.15;;
59970;SDS011;45825;45.434;9.116;2024-01-07T05:23:13;21.63;;;18.83;;
59970;SDS011;45825;45.434;9.116;2024-01-07T05:25:39;23.50;;;18.95;;
59970;SDS011;45825;45.434;9.116;2024-01-07T05:28:04;22.10;;;19.35;;
59970;SDS011;45825;45.434;9.116;2024-01-07T05:30:30;25.50;;;20.35;;
59970;SDS011;45825;45.434;9.116;2024-01-07T05:32:55;24.70;;;20.13;;
59970;SDS011;45825;45.434;9.116;2024-01-07T05:35:20;24.20;;;20.73;;
59970;SDS011;45825;45.434;9.116;2024-01-07T05:37:46;24.33;;;20.98;;
59970;SDS011;45825;45.434;9.116;2024-01-07T05:40:11;25.00;;;21.23;;
59970;SDS011;45825;45.434;9.116;2024-01-07T05:42:36;25.75;;;21.73;;
59970;SDS011;45825;45.434;9.116;2024-01-07T05:45:02;22.98;;;20.40;;
59970;SDS011;45825;45.434;9.116;2024-01-07T05:47:27;25.23;;;21.27;;
59970;SDS011;45825;45.434;9.116;2024-01-07T05:49:53;26.10;;;22.23;;
59970;SDS011;45825;45.434;9.116;2024-01-07T05:52:18;24.60;;;20.42;;
59970;SDS011;45825;45.434;9.116;2024-01-07T05:54:44;25.85;;;20.08;;
59970;SDS011;45825;45.434;9.116;2024-01-07T05:57:10;22.48;;;19.38;;
59970;SDS011;45825;45.434;9.116;2024-01-07T05:59:36;25.45;;;21.55;;
59970;SDS011;45825;45.434;9.116;2024-01-07T06:02:02;24.45;;;21.05;;
59970;SDS011;45825;45.434;9.116;2024-01-07T06:04:27;24.77;;;21.65;;
59970;SDS011;45825;45.434;9.116;2024-01-07T06:06:52;25.58;;;21.70;;
59970;SDS011;45825;45.434;9.116;2024-01-07T06:09:18;23.83;;;20.63;;
59970;SDS011;45825;45.434;9.116;2024-01-07T06:11:43;26.45;;;20.83;;
59970;SDS011;45825;45.434;9.116;2024-01-07T06:14:08;24.92;;;20.17;;
59970;SDS011;45825;45.434;9.116;2024-01-07T06:16:33;23.48;;;19.02;;
59970;SDS011;45825;45.434;9.116;2024-01-07T06:18:59;22.25;;;18.45;;
59970;SDS011;45825;45.434;9.116;2024-01-07T06:21:24;24.13;;;19.08;;
59970;SDS011;45825;45.434;9.116;2024-01-07T06:23:49;23.75;;;19.35;;
59970;SDS011;45825;45.434;9.116;2024-01-07T06:26:15;23.15;;;19.48;;
59970;SDS011;45825;45.434;9.116;2024-01-07T06:28:40;21.98;;;18.85;;
59970;SDS011;45825;45.434;9.116;2024-01-07T06:31:05;23.42;;;20.10;;
59970;SDS011;45825;45.434;9.116;2024-01-07T06:33:31;25.08;;;19.90;;
59970;SDS011;45825;45.434;9.116;2024-01-07T06:35:59;24.05;;;19.92;;
59970;SDS011;45825;45.434;9.116;2024-01-07T06:38:25;26.30;;;20.98;;
59970;SDS011;45825;45.434;9.116;2024-01-07T06:40:50;25.33;;;19.40;;
59970;SDS011;45825;45.434;9.116;2024-01-07T06:43:16;25.70;;;19.98;;
59970;SDS011;45825;45.434;9.116;2024-01-07T06:45:41;24.98;;;20.02;;
59970;SDS011;45825;45.434;9.116;2024-01-07T06:48:08;22.73;;;19.20;;
59970;SDS011;45825;45.434;9.116;2024-01-07T06:50:33;23.10;;;19.30;;
59970;SDS011;45825;45.434;9.116;2024-01-07T06:52:59;22.20;;;18.20;;
59970;SDS011;45825;45.434;9.116;2024-01-07T06:55:24;21.88;;;18.73;;
59970;SDS011;45825;45.434;9.116;2024-01-07T06:57:49;21.38;;;17.65;;
59970;SDS011;45825;45.434;9.116;2024-01-07T07:00:15;22.02;;;18.42;;
59970;SDS011;45825;45.434;9.116;2024-01-07T07:02:40;21.35;;;17.50;;
59970;SDS011;45825;45.434;9.116;2024-01-07T07:05:06;21.83;;;18.33;;
59970;SDS011;45825;45.434;9.116;2024-01-07T07:07:31;20.60;;;17.67;;
59970;SDS011;45825;45.434;9.116;2024-01-07T07:09:56;21.17;;;18.13;;
59970;SDS011;45825;45.434;9.116;2024-01-07T07:12:22;23.50;;;18.33;;
59970;SDS011;45825;45.434;9.116;2024-01-07T07:14:47;22.35;;;18.70;;
59970;SDS011;45825;45.434;9.116;2024-01-07T07:17:13;24.88;;;19.42;;
59970;SDS011;45825;45.434;9.116;2024-01-07T07:19:39;22.92;;;18.83;;
59970;SDS011;45825;45.434;9.116;2024-01-07T07:22:04;21.92;;;18.60;;
59970;SDS011;45825;45.434;9.116;2024-01-07T07:24:29;22.58;;;18.08;;
59970;SDS011;45825;45.434;9.116;2024-01-07T07:26:54;22.75;;;17.77;;
59970;SDS011;45825;45.434;9.116;2024-01-07T07:29:20;21.27;;;18.38;;
59970;SDS011;45825;45.434;9.116;2024-01-07T07:31:45;22.55;;;19.00;;
59970;SDS011;45825;45.434;9.116;2024-01-07T07:34:10;23.30;;;18.02;;
59970;SDS011;45825;45.434;9.116;2024-01-07T07:36:36;21.77;;;18.15;;
59970;SDS011;45825;45.434;9.116;2024-01-07T07:39:02;20.80;;;17.42;;
59970;SDS011;45825;45.434;9.116;2024-01-07T07:41:27;21.20;;;17.58;;
59970;SDS011;45825;45.434;9.116;2024-01-07T07:43:53;20.20;;;16.77;;
59970;SDS011;45825;45.434;9.116;2024-01-07T07:46:19;22.73;;;17.77;;
59970;SDS011;45825;45.434;9.116;2024-01-07T07:48:44;21.70;;;18.08;;
59970;SDS011;45825;45.434;9.116;2024-01-07T07:51:10;20.23;;;17.35;;
59970;SDS011;45825;45.434;9.116;2024-01-07T07:53:37;22.95;;;18.05;;
59970;SDS011;45825;45.434;9.116;2024-01-07T07:56:05;22.55;;;18.45;;
59970;SDS011;45825;45.434;9.116;2024-01-07T07:58:30;20.35;;;16.98;;
59970;SDS011;45825;45.434;9.116;2024-01-07T08:00:56;21.50;;;17.80;;
59970;SDS011;45825;45.434;9.116;2024-01-07T08:03:21;21.42;;;17.05;;
59970;SDS011;45825;45.434;9.116;2024-01-07T08:05:46;20.13;;;17.58;;
59970;SDS011;45825;45.434;9.116;2024-01-07T08:08:12;19.17;;;16.92;;
59970;SDS011;45825;45.434;9.116;2024-01-07T08:10:37;20.63;;;16.70;;
59970;SDS011;45825;45.434;9.116;2024-01-07T08:13:02;21.08;;;18.73;;
59970;SDS011;45825;45.434;9.116;2024-01-07T08:15:28;20.55;;;17.30;;
59970;SDS011;45825;45.434;9.116;2024-01-07T08:17:53;19.70;;;16.27;;
59970;SDS011;45825;45.434;9.116;2024-01-07T08:20:18;19.83;;;16.27;;
59970;SDS011;45825;45.434;9.116;2024-01-07T08:22:46;18.08;;;15.35;;
59970;SDS011;45825;45.434;9.116;2024-01-07T08:25:11;19.33;;;15.77;;
59970;SDS011;45825;45.434;9.116;2024-01-07T08:27:38;17.17;;;14.40;;
59970;SDS011;45825;45.434;9.116;2024-01-07T08:30:06;14.63;;;12.48;;
59970;SDS011;45825;45.434;9.116;2024-01-07T08:32:31;15.88;;;13.40;;
59970;SDS011;45825;45.434;9.116;2024-01-07T08:34:57;15.48;;;12.85;;
59970;SDS011;45825;45.434;9.116;2024-01-07T08:37:22;15.77;;;12.15;;
59970;SDS011;45825;45.434;9.116;2024-01-07T08:39:47;12.38;;;9.95;;
59970;SDS011;45825;45.434;9.116;2024-01-07T08:42:13;13.13;;;10.23;;
59970;SDS011;45825;45.434;9.116;2024-01-07T08:44:38;11.75;;;9.27;;
59970;SDS011;45825;45.434;9.116;2024-01-07T08:47:04;10.80;;;7.63;;
59970;SDS011;45825;45.434;9.116;2024-01-07T08:49:30;10.07;;;7.28;;
59970;SDS011;45825;45.434;9.116;2024-01-07T08:51:57;10.98;;;8.15;;
59970;SDS011;45825;45.434;9.116;2024-01-07T08:54:23;10.85;;;8.30;;
59970;SDS011;45825;45.434;9.116;2024-01-07T08:56:48;10.90;;;8.73;;
59970;SDS011;45825;45.434;9.116;2024-01-07T08:59:14;12.50;;;9.50;;
59970;SDS011;45825;45.434;9.116;2024-01-07T09:01:39;11.98;;;9.20;;
59970;SDS011;45825;45.434;9.116;2024-01-07T09:04:05;11.50;;;8.75;;
59970;SDS011;45825;45.434;9.116;2024-01-07T09:06:31;12.55;;;9.80;;
59970;SDS011;45825;45.434;9.116;2024-01-07T09:08:57;12.07;;;9.27;;
59970;SDS011;45825;45.434;9.116;2024-01-07T09:11:22;11.98;;;9.40;;
59970;SDS011;45825;45.434;9.116;2024-01-07T09:13:48;13.63;;;9.77;;
59970;SDS011;45825;45.434;9.116;2024-01-07T09:16:15;12.73;;;9.82;;
59970;SDS011;45825;45.434;9.116;2024-01-07T09:18:41;14.05;;;9.52;;
59970;SDS011;45825;45.434;9.116;2024-01-07T09:21:06;12.00;;;9.63;;
59970;SDS011;45825;45.434;9.116;2024-01-07T09:23:32;13.85;;;10.20;;
59970;SDS011;45825;45.434;9.116;2024-01-07T09:25:58;14.43;;;10.90;;
59970;SDS011;45825;45.434;9.116;2024-01-07T09:28:24;15.15;;;10.70;;
59970;SDS011;45825;45.434;9.116;2024-01-07T09:30:49;13.10;;;10.57;;
59970;SDS011;45825;45.434;9.116;2024-01-07T09:33:15;13.43;;;10.30;;
59970;SDS011;45825;45.434;9.116;2024-01-07T09:35:40;12.45;;;10.45;;
59970;SDS011;45825;45.434;9.116;2024-01-07T09:38:06;13.82;;;10.50;;
59970;SDS011;45825;45.434;9.116;2024-01-07T09:40:31;14.20;;;12.38;;
59970;SDS011;45825;45.434;9.116;2024-01-07T09:42:57;13.60;;;10.55;;
59970;SDS011;45825;45.434;9.116;2024-01-07T09:45:24;14.10;;;11.40;;
59970;SDS011;45825;45.434;9.116;2024-01-07T09:47:50;13.80;;;10.93;;
59970;SDS011;45825;45.434;9.116;2024-01-07T09:50:15;13.18;;;10.77;;
59970;SDS011;45825;45.434;9.116;2024-01-07T09:52:42;12.80;;;10.32;;
59970;SDS011;45825;45.434;9.116;2024-01-07T09:55:27;14.52;;;11.18;;
59970;SDS011;45825;45.434;9.116;2024-01-07T09:57:56;14.20;;;10.85;;
59970;SDS011;45825;45.434;9.116;2024-01-07T10:00:22;14.30;;;11.20;;
59970;SDS011;45825;45.434;9.116;2024-01-07T10:02:47;14.00;;;11.63;;
59970;SDS011;45825;45.434;9.116;2024-01-07T10:05:12;14.50;;;11.30;;
59970;SDS011;45825;45.434;9.116;2024-01-07T10:07:38;13.82;;;10.90;;
59970;SDS011;45825;45.434;9.116;2024-01-07T10:10:13;13.57;;;11.27;;
59970;SDS011;45825;45.434;9.116;2024-01-07T10:12:39;13.85;;;11.38;;
59970;SDS011;45825;45.434;9.116;2024-01-07T10:15:04;14.50;;;10.70;;
59970;SDS011;45825;45.434;9.116;2024-01-07T10:17:30;13.70;;;11.20;;
59970;SDS011;45825;45.434;9.116;2024-01-07T10:19:55;14.07;;;11.35;;
59970;SDS011;45825;45.434;9.116;2024-01-07T10:22:21;14.70;;;11.10;;
59970;SDS011;45825;45.434;9.116;2024-01-07T10:24:46;13.48;;;11.05;;
59970;SDS011;45825;45.434;9.116;2024-01-07T10:27:14;13.88;;;11.10;;
59970;SDS011;45825;45.434;9.116;2024-01-07T10:29:39;14.98;;;11.48;;
59970;SDS011;45825;45.434;9.116;2024-01-07T10:32:04;14.38;;;11.18;;
59970;SDS011;45825;45.434;9.116;2024-01-07T10:34:31;14.30;;;11.05;;
59970;SDS011;45825;45.434;9.116;2024-01-07T10:36:58;15.35;;;11.02;;
59970;SDS011;45825;45.434;9.116;2024-01-07T10:39:25;14.00;;;11.18;;
59970;SDS011;45825;45.434;9.116;2024-01-07T10:41:51;13.30;;;10.68;;
59970;SDS011;45825;45.434;9.116;2024-01-07T10:44:23;13.40;;;11.15;;
59970;SDS011;45825;45.434;9.116;2024-01-07T10:46:50;16.75;;;12.02;;
59970;SDS011;45825;45.434;9.116;2024-01-07T10:49:20;15.02;;;11.70;;
59970;SDS011;45825;45.434;9.116;2024-01-07T10:51:46;14.05;;;11.32;;
59970;SDS011;45825;45.434;9.116;2024-01-07T10:54:21;13.68;;;11.27;;
59970;SDS011;45825;45.434;9.116;2024-01-07T10:56:49;14.68;;;11.07;;
59970;SDS011;45825;45.434;9.116;2024-01-07T10:59:18;14.32;;;10.73;;
59970;SDS011;45825;45.434;9.116;2024-01-07T11:01:44;15.15;;;10.48;;
59970;SDS011;45825;45.434;9.116;2024-01-07T11:12:22;13.77;;;10.70;;
59970;SDS011;45825;45.434;9.116;2024-01-07T11:14:48;13.70;;;10.43;;
59970;SDS011;45825;45.434;9.116;2024-01-07T11:17:51;12.93;;;10.38;;
59970;SDS011;45825;45.434;9.116;2024-01-07T11:20:18;12.38;;;9.77;;
59970;SDS011;45825;45.434;9.116;2024-01-07T11:22:45;14.13;;;9.73;;
59970;SDS011;45825;45.434;9.116;2024-01-07T11:25:27;12.88;;;10.43;;
59970;SDS011;45825;45.434;9.116;2024-01-07T11:27:55;13.93;;;10.48;;
59970;SDS011;45825;45.434;9.116;2024-01-07T11:30:21;16.38;;;11.15;;
59970;SDS011;45825;45.434;9.116;2024-01-07T11:32:47;13.35;;;10.80;;
59970;SDS011;45825;45.434;9.116;2024-01-07T11:35:13;12.65;;;9.50;;
59970;SDS011;45825;45.434;9.116;2024-01-07T11:37:38;12.27;;;9.30;;
59970;SDS011;45825;45.434;9.116;2024-01-07T11:40:04;12.57;;;10.07;;
59970;SDS011;45825;45.434;9.116;2024-01-07T11:42:31;14.85;;;11.05;;
59970;SDS011;45825;45.434;9.116;2024-01-07T11:44:57;15.23;;;10.82;;
59970;SDS011;45825;45.434;9.116;2024-01-07T11:47:23;14.40;;;10.38;;
59970;SDS011;45825;45.434;9.116;2024-01-07T11:49:49;12.90;;;9.90;;
59970;SDS011;45825;45.434;9.116;2024-01-07T11:52:15;13.13;;;9.25;;
59970;SDS011;45825;45.434;9.116;2024-01-07T11:54:41;11.75;;;8.82;;
59970;SDS011;45825;45.434;9.116;2024-01-07T11:57:06;12.00;;;8.80;;
59970;SDS011;45825;45.434;9.116;2024-01-07T11:59:35;12.50;;;8.55;;
59970;SDS011;45825;45.434;9.116;2024-01-07T12:02:01;12.38;;;8.90;;
59970;SDS011;45825;45.434;9.116;2024-01-07T12:04:29;12.10;;;9.07;;
59970;SDS011;45825;45.434;9.116;2024-01-07T12:06:58;13.95;;;9.07;;
59970;SDS011;45825;45.434;9.116;2024-01-07T12:09:24;10.32;;;8.25;;
59970;SDS011;45825;45.434;9.116;2024-01-07T12:11:50;10.73;;;8.10;;
59970;SDS011;45825;45.434;9.116;2024-01-07T12:14:16;10.80;;;7.78;;
59970;SDS011;45825;45.434;9.116;2024-01-07T12:16:42;10.65;;;7.95;;
59970;SDS011;45825;45.434;9.116;2024-01-07T12:19:08;11.85;;;8.43;;
59970;SDS011;45825;45.434;9.116;2024-01-07T12:21:34;10.30;;;8.07;;
59970;SDS011;45825;45.434;9.116;2024-01-07T12:24:00;11.07;;;8.57;;
59970;SDS011;45825;45.434;9.116;2024-01-07T12:26:28;9.43;;;7.32;;
59970;SDS011;45825;45.434;9.116;2024-01-07T12:28:54;9.90;;;7.30;;
59970;SDS011;45825;45.434;9.116;2024-01-07T12:31:22;10.43;;;7.97;;
59970;SDS011;45825;45.434;9.116;2024-01-07T12:33:47;11.30;;;8.23;;
59970;SDS011;45825;45.434;9.116;2024-01-07T12:36:13;9.27;;;7.22;;
59970;SDS011;45825;45.434;9.116;2024-01-07T12:38:40;10.52;;;7.20;;
59970;SDS011;45825;45.434;9.116;2024-01-07T12:41:06;10.95;;;7.95;;
59970;SDS011;45825;45.434;9.116;2024-01-07T12:43:32;10.60;;;7.97;;
59970;SDS011;45825;45.434;9.116;2024-01-07T12:45:58;9.73;;;7.60;;
59970;SDS011;45825;45.434;9.116;2024-01-07T12:48:29;10.07;;;7.57;;
59970;SDS011;45825;45.434;9.116;2024-01-07T12:50:55;9.57;;;7.07;;
59970;SDS011;45825;45.434;9.116;2024-01-07T12:53:20;10.20;;;7.18;;
59970;SDS011;45825;45.434;9.116;2024-01-07T12:55:45;10.30;;;7.57;;
59970;SDS011;45825;45.434;9.116;2024-01-07T12:58:11;11.65;;;8.00;;
59970;SDS011;45825;45.434;9.116;2024-01-07T13:00:36;10.20;;;6.55;;
59970;SDS011;45825;45.434;9.116;2024-01-07T13:03:03;9.63;;;7.47;;
59970;SDS011;45825;45.434;9.116;2024-01-07T13:05:29;10.60;;;7.25;;
59970;SDS011;45825;45.434;9.116;2024-01-07T13:07:55;10.35;;;8.00;;
59970;SDS011;45825;45.434;9.116;2024-01-07T13:10:20;10.88;;;7.65;;
59970;SDS011;45825;45.434;9.116;2024-01-07T13:12:45;10.15;;;7.85;;
59970;SDS011;45825;45.434;9.116;2024-01-07T13:15:11;13.50;;;8.25;;
59970;SDS011;45825;45.434;9.116;2024-01-07T13:17:37;12.30;;;8.10;;
59970;SDS011;45825;45.434;9.116;2024-01-07T13:20:02;11.63;;;8.85;;
59970;SDS011;45825;45.434;9.116;2024-01-07T13:22:31;11.40;;;8.43;;
59970;SDS011;45825;45.434;9.116;2024-01-07T13:24:57;10.32;;;8.40;;
59970;SDS011;45825;45.434;9.116;2024-01-07T13:27:22;11.52;;;8.45;;
59970;SDS011;45825;45.434;9.116;2024-01-07T13:29:48;11.40;;;8.55;;
59970;SDS011;45825;45.434;9.116;2024-01-07T13:32:14;11.80;;;8.70;;
59970;SDS011;45825;45.434;9.116;2024-01-07T13:34:43;10.48;;;8.05;;
59970;SDS011;45825;45.434;9.116;2024-01-07T13:37:09;10.40;;;7.90;;
59970;SDS011;45825;45.434;9.116;2024-01-07T13:39:35;11.40;;;8.70;;
59970;SDS011;45825;45.434;9.116;2024-01-07T13:42:00;10.50;;;8.35;;
59970;SDS011;45825;45.434;9.116;2024-01-07T13:44:26;10.90;;;8.20;;
59970;SDS011;45825;45.434;9.116;2024-01-07T13:46:51;11.85;;;8.35;;
59970;SDS011;45825;45.434;9.116;2024-01-07T13:49:17;11.60;;;8.23;;
59970;SDS011;45825;45.434;9.116;2024-01-07T13:51:42;11.52;;;8.23;;
59970;SDS011;45825;45.434;9.116;2024-01-07T13:54:08;10.02;;;7.72;;
59970;SDS011;45825;45.434;9.116;2024-01-07T13:56:37;11.73;;;7.90;;
59970;SDS011;45825;45.434;9.116;2024-01-07T13:59:06;9.63;;;7.40;;
59970;SDS011;45825;45.434;9.116;2024-01-07T14:01:32;10.23;;;7.55;;
59970;SDS011;45825;45.434;9.116;2024-01-07T14:03:57;10.98;;;7.45;;
59970;SDS011;45825;45.434;9.116;2024-01-07T14:06:22;10.35;;;7.90;;
59970;SDS011;45825;45.434;9.116;2024-01-07T14:08:48;9.38;;;6.90;;
59970;SDS011;45825;45.434;9.116;2024-01-07T14:11:13;12.30;;;7.47;;
59970;SDS011;45825;45.434;9.116;2024-01-07T14:13:38;10.20;;;6.50;;
59970;SDS011;45825;45.434;9.116;2024-01-07T14:16:04;10.00;;;6.82;;
59970;SDS011;45825;45.434;9.116;2024-01-07T14:18:30;9.75;;;7.00;;
59970;SDS011;45825;45.434;9.116;2024-01-07T14:20:55;11.05;;;7.45;;
59970;SDS011;45825;45.434;9.116;2024-01-07T14:23:20;10.90;;;7.97;;
59970;SDS011;45825;45.434;9.116;2024-01-07T14:25:46;11.48;;;8.13;;